createdAt,value
2022-10-04T00:00:30.673Z,18.70
2022-10-04T00:03:24.470Z,18.70
2022-10-04T00:06:19.266Z,18.60
2022-10-04T00:09:11.593Z,18.60
2022-10-04T00:11:57.978Z,18.60
2022-10-04T00:14:43.534Z,18.50
2022-10-04T00:17:31.788Z,18.50
2022-10-04T00:20:55.780Z,18.40
2022-10-04T00:23:44.890Z,18.50
2022-10-04T00:26:30.537Z,18.40
2022-10-04T00:29:37.867Z,18.50
2022-10-04T00:32:59.632Z,18.50
2022-10-04T00:35:47.019Z,18.40
2022-10-04T00:38:32.560Z,18.20
2022-10-04T00:41:18.767Z,18.20
2022-10-04T00:44:08.769Z,18.20
2022-10-04T00:46:57.749Z,18.20
2022-10-04T00:49:46.849Z,18.20
2022-10-04T00:52:36.894Z,18.10
2022-10-04T00:55:33.587Z,18.10
2022-10-04T00:58:26.752Z,18.00
2022-10-04T01:01:12.490Z,18.00
2022-10-04T01:04:03.020Z,18.10
2022-10-04T01:06:48.614Z,18.10
2022-10-04T01:09:40.051Z,18.00
2022-10-04T01:12:56.561Z,18.10
2022-10-04T01:15:50.775Z,18.10
2022-10-04T01:18:36.969Z,18.20
2022-10-04T01:21:30.861Z,18.20
2022-10-04T01:24:17.634Z,18.20
2022-10-04T01:27:04.375Z,18.20
2022-10-04T01:29:51.798Z,18.20
2022-10-04T01:32:39.045Z,18.10
2022-10-04T01:35:24.736Z,18.10
2022-10-04T01:38:11.581Z,17.80
2022-10-04T01:41:00.841Z,17.40
2022-10-04T01:43:50.864Z,17.60
2022-10-04T01:46:37.915Z,17.50
2022-10-04T01:49:29.443Z,17.40
2022-10-04T01:52:19.889Z,17.60
2022-10-04T01:55:15.637Z,17.70
2022-10-04T01:58:23.576Z,17.40
2022-10-04T02:01:18.930Z,16.90
2022-10-04T02:04:29.093Z,16.60
2022-10-04T02:07:16.492Z,16.60
2022-10-04T02:10:05.225Z,16.50
2022-10-04T02:12:54.794Z,16.30
2022-10-04T02:15:40.738Z,16.10
2022-10-04T02:18:28.099Z,16.40
2022-10-04T02:21:15.576Z,16.30
2022-10-04T02:24:01.360Z,16.50
2022-10-04T02:26:52.016Z,16.70
2022-10-04T02:29:37.671Z,17.10
2022-10-04T02:32:41.502Z,17.40
2022-10-04T02:35:37.137Z,17.50
2022-10-04T02:38:30.254Z,17.50
2022-10-04T02:41:27.968Z,17.60
2022-10-04T02:44:24.727Z,17.70
2022-10-04T02:47:14.391Z,17.60
2022-10-04T02:50:07.020Z,17.50
2022-10-04T02:53:01.180Z,17.50
2022-10-04T02:55:48.260Z,17.30
2022-10-04T02:58:39.089Z,17.30
2022-10-04T03:01:37.581Z,17.30
2022-10-04T03:04:31.222Z,17.30
2022-10-04T03:07:17.141Z,17.40
2022-10-04T03:10:06.848Z,17.40
2022-10-04T03:12:53.387Z,17.50
2022-10-04T03:15:39.811Z,17.50
2022-10-04T03:18:25.950Z,17.40
2022-10-04T03:21:15.343Z,17.30
2022-10-04T03:24:03.376Z,17.30
2022-10-04T03:27:09.437Z,17.10
2022-10-04T03:29:59.206Z,17.00
2022-10-04T03:32:45.953Z,17.00
2022-10-04T03:35:40.581Z,16.80
2022-10-04T03:38:27.179Z,16.70
2022-10-04T03:41:14.705Z,16.60
2022-10-04T03:44:04.826Z,16.60
2022-10-04T03:46:51.190Z,16.60
2022-10-04T03:49:38.621Z,16.60
2022-10-04T03:52:33.781Z,16.60
2022-10-04T03:55:19.962Z,16.30
2022-10-04T03:58:07.328Z,16.20
2022-10-04T04:00:58.934Z,16.20
2022-10-04T04:04:01.172Z,16.30
2022-10-04T04:06:50.489Z,16.30
2022-10-04T04:09:42.644Z,16.20
2022-10-04T04:12:56.260Z,16.20
2022-10-04T04:15:43.380Z,16.10
2022-10-04T04:18:35.768Z,16.20
2022-10-04T04:21:24.187Z,16.20
2022-10-04T04:24:25.747Z,16.30
2022-10-04T04:27:12.068Z,16.10
2022-10-04T04:30:00.141Z,16.20
2022-10-04T04:32:52.681Z,16.40
2022-10-04T04:35:38.342Z,16.40
2022-10-04T04:38:25.973Z,16.60
2022-10-04T04:41:11.943Z,16.40
2022-10-04T04:43:58.898Z,16.40
2022-10-04T04:46:46.980Z,16.70
2022-10-04T04:49:33.629Z,16.60
2022-10-04T04:52:21.758Z,16.50
2022-10-04T04:55:20.450Z,16.60
2022-10-04T04:58:07.866Z,16.70
2022-10-04T05:01:01.336Z,16.60
2022-10-04T05:04:26.739Z,16.50
2022-10-04T05:07:19.684Z,16.30
2022-10-04T05:10:21.275Z,15.70
2022-10-04T05:13:09.959Z,15.70
2022-10-04T05:15:58.537Z,15.80
2022-10-04T05:18:45.616Z,15.50
2022-10-04T05:21:33.517Z,15.50
2022-10-04T05:24:32.423Z,15.50
2022-10-04T05:27:29.225Z,15.40
2022-10-04T05:30:28.019Z,15.50
2022-10-04T05:33:18.726Z,15.70
2022-10-04T05:36:10.714Z,15.50
2022-10-04T05:39:05.487Z,15.40
2022-10-04T05:42:17.240Z,14.80
2022-10-04T05:45:14.604Z,15.40
2022-10-04T05:48:02.071Z,15.50
2022-10-04T05:50:48.749Z,15.80
2022-10-04T05:53:35.678Z,15.70
2022-10-04T05:56:47.658Z,15.60
2022-10-04T06:00:04.337Z,15.30
2022-10-04T06:03:34.815Z,15.30
2022-10-04T06:06:33.623Z,15.70
2022-10-04T06:09:36.085Z,16.10
2022-10-04T06:12:26.406Z,16.30
2022-10-04T06:15:27.978Z,16.40
2022-10-04T06:18:38.502Z,16.40
2022-10-04T06:22:08.197Z,16.60
2022-10-04T06:25:02.080Z,16.90
2022-10-04T06:28:42.997Z,16.90
2022-10-04T06:31:57.186Z,17.00
2022-10-04T06:35:17.134Z,17.10
2022-10-04T06:38:40.564Z,17.10
2022-10-04T06:41:47.410Z,17.20
2022-10-04T06:44:46.439Z,17.30
2022-10-04T06:48:10.219Z,17.40
2022-10-04T06:51:19.653Z,17.50
2022-10-04T06:54:22.668Z,17.80
2022-10-04T06:57:27.027Z,18.00
2022-10-04T07:00:18.836Z,18.10
2022-10-04T07:03:20.554Z,17.90
2022-10-04T07:06:11.392Z,17.80
2022-10-04T07:09:02.496Z,18.00
2022-10-04T07:11:54.841Z,18.40
2022-10-04T07:14:47.899Z,18.70
2022-10-04T07:17:41.886Z,18.70
2022-10-04T07:20:32.439Z,18.50
2022-10-04T07:23:32.339Z,18.60
2022-10-04T07:26:37.369Z,18.90
2022-10-04T07:29:41.217Z,19.20
2022-10-04T07:32:30.267Z,18.30
2022-10-04T07:35:30.413Z,17.90
2022-10-04T07:38:29.605Z,18.00
2022-10-04T07:41:39.735Z,17.80
2022-10-04T07:44:44.778Z,17.70
2022-10-04T07:47:32.420Z,17.50
2022-10-04T07:50:32.643Z,17.20
2022-10-04T07:53:30.138Z,17.00
2022-10-04T07:56:32.700Z,17.00
2022-10-04T07:59:41.059Z,17.10
2022-10-04T08:02:57.609Z,17.10
2022-10-04T08:05:50.089Z,17.90
2022-10-04T08:09:06.239Z,18.30
2022-10-04T08:12:06.603Z,18.30
2022-10-04T08:15:13.800Z,17.70
2022-10-04T08:18:53.564Z,17.50
2022-10-04T08:22:04.436Z,17.50
2022-10-04T08:24:58.794Z,18.60
2022-10-04T08:28:24.485Z,19.60
2022-10-04T08:31:28.794Z,20.60
2022-10-04T08:34:44.984Z,21.30
2022-10-04T08:38:12.064Z,21.30
2022-10-04T08:41:16.383Z,21.50
2022-10-04T08:44:13.784Z,21.80
2022-10-04T08:47:37.256Z,21.10
2022-10-04T08:51:13.278Z,20.30
2022-10-04T08:54:35.492Z,19.90
2022-10-04T08:57:46.804Z,20.10
2022-10-04T09:00:56.894Z,19.30
2022-10-04T09:03:42.403Z,19.60
2022-10-04T09:06:37.509Z,20.10
2022-10-04T09:10:09.310Z,20.20
2022-10-04T09:13:11.159Z,20.50
2022-10-04T09:16:48.152Z,20.80
2022-10-04T09:19:55.230Z,20.80
2022-10-04T09:23:18.555Z,20.80
2022-10-04T09:26:21.158Z,20.90
2022-10-04T09:29:15.492Z,21.30
2022-10-04T09:32:34.171Z,19.30
2022-10-04T09:35:47.081Z,18.80
2022-10-04T09:39:29.102Z,18.70
2022-10-04T09:42:36.490Z,18.90
2022-10-04T09:45:37.022Z,19.10
2022-10-04T09:49:00.722Z,19.20
2022-10-04T09:52:08.983Z,19.40
2022-10-04T09:55:43.715Z,19.20
2022-10-04T09:58:32.192Z,19.20
2022-10-04T10:01:28.586Z,19.00
2022-10-04T10:04:33.052Z,19.20
2022-10-04T10:07:37.298Z,19.60
2022-10-04T10:10:51.096Z,19.70
2022-10-04T10:14:14.133Z,19.80
2022-10-04T10:17:15.332Z,20.10
2022-10-04T10:20:16.694Z,20.60
2022-10-04T10:23:37.292Z,20.50
2022-10-04T10:26:47.387Z,20.30
2022-10-04T10:30:19.611Z,20.60
2022-10-04T10:33:51.469Z,20.80
2022-10-04T10:37:22.476Z,21.00
2022-10-04T10:40:41.045Z,21.70
2022-10-04T10:43:46.640Z,21.90
2022-10-04T10:46:43.087Z,22.40
2022-10-04T10:49:56.615Z,22.00
2022-10-04T10:53:26.740Z,22.00
2022-10-04T10:56:30.448Z,22.50
2022-10-04T10:59:54.953Z,22.60
2022-10-04T11:03:13.574Z,22.70
2022-10-04T11:06:27.566Z,22.70
2022-10-04T11:09:48.207Z,22.10
2022-10-04T11:12:47.450Z,22.80
2022-10-04T11:16:10.947Z,22.60
2022-10-04T11:19:08.769Z,22.00
2022-10-04T11:22:16.551Z,22.80
2022-10-04T11:25:08.028Z,22.60
2022-10-04T11:28:13.892Z,22.10
2022-10-04T11:31:02.410Z,21.90
2022-10-04T11:33:55.595Z,21.70
2022-10-04T11:36:49.920Z,21.70
2022-10-04T11:39:49.446Z,22.10
2022-10-04T11:42:56.218Z,22.10
2022-10-04T11:46:11.059Z,21.90
2022-10-04T11:49:05.559Z,21.90
2022-10-04T11:52:02.061Z,21.80
2022-10-04T11:55:26.140Z,22.40
2022-10-04T11:58:32.084Z,22.70
2022-10-04T12:02:00.009Z,21.90
2022-10-04T12:05:23.383Z,22.10
2022-10-04T12:08:27.813Z,22.10
2022-10-04T12:11:19.634Z,22.20
2022-10-04T12:14:20.028Z,22.20
2022-10-04T12:17:11.328Z,22.70
2022-10-04T12:20:18.016Z,22.70
2022-10-04T12:23:21.689Z,22.40
2022-10-04T12:26:20.220Z,23.00
2022-10-04T12:29:31.219Z,22.90
2022-10-04T12:32:28.219Z,23.20
2022-10-04T12:35:45.223Z,22.40
2022-10-04T12:38:37.442Z,22.50
2022-10-04T12:41:48.536Z,22.60
2022-10-04T12:44:47.082Z,22.90
2022-10-04T12:47:53.950Z,23.20
2022-10-04T12:51:00.146Z,23.10
2022-10-04T12:54:23.515Z,23.20
2022-10-04T12:57:33.963Z,23.60
2022-10-04T13:00:25.326Z,23.30
2022-10-04T13:03:20.908Z,23.50
2022-10-04T13:06:15.215Z,22.90
2022-10-04T13:09:30.199Z,22.70
2022-10-04T13:12:27.491Z,23.00
2022-10-04T13:19:09.488Z,22.70
2022-10-04T13:22:51.289Z,23.20
2022-10-04T13:25:52.904Z,23.50
2022-10-04T13:29:02.978Z,23.60
2022-10-04T13:32:01.019Z,23.70
2022-10-04T13:34:49.912Z,22.60
2022-10-04T13:37:50.224Z,22.90
2022-10-04T13:40:48.405Z,23.10
2022-10-04T13:44:09.736Z,22.80
2022-10-04T13:47:24.398Z,22.90
2022-10-04T13:50:26.522Z,23.10
2022-10-04T13:53:53.970Z,22.90
2022-10-04T13:56:53.834Z,22.60
2022-10-04T14:00:01.851Z,22.80
2022-10-04T14:03:14.892Z,22.50
2022-10-04T14:06:03.707Z,22.50
2022-10-04T14:09:17.049Z,22.90
2022-10-04T14:12:17.436Z,22.60
2022-10-04T14:15:46.044Z,22.50
2022-10-04T14:18:43.871Z,22.50
2022-10-04T14:21:51.366Z,22.40
2022-10-04T14:24:55.558Z,22.40
2022-10-04T14:28:08.722Z,22.40
2022-10-04T14:31:21.171Z,22.40
2022-10-04T14:34:23.714Z,22.80
2022-10-04T14:37:40.895Z,23.10
2022-10-04T14:40:48.188Z,23.60
2022-10-04T14:43:55.133Z,22.60
2022-10-04T14:46:43.436Z,22.30
2022-10-04T14:49:51.773Z,22.50
2022-10-04T14:53:20.300Z,22.50
2022-10-04T14:56:39.879Z,22.60
2022-10-04T15:00:03.869Z,22.70
2022-10-04T15:03:05.818Z,22.60
2022-10-04T15:06:10.877Z,22.40
2022-10-04T15:09:06.550Z,22.30
2022-10-04T15:12:29.515Z,22.20
2022-10-04T15:15:12.996Z,22.50
2022-10-04T15:18:22.412Z,22.90
2022-10-04T15:21:32.969Z,22.70
2022-10-04T15:24:18.835Z,22.90
2022-10-04T15:27:27.751Z,23.20
2022-10-04T15:30:27.585Z,22.90
2022-10-04T15:33:33.681Z,22.30
2022-10-04T15:36:31.322Z,22.10
2022-10-04T15:39:26.308Z,22.10
2022-10-04T15:42:35.977Z,22.10
2022-10-04T15:46:00.777Z,22.10
2022-10-04T15:49:19.774Z,22.10
2022-10-04T15:52:18.871Z,22.10
2022-10-04T15:55:22.423Z,21.90
2022-10-04T15:58:20.413Z,22.00
2022-10-04T16:01:44.340Z,21.90
2022-10-04T16:04:33.274Z,21.90
2022-10-04T16:07:53.604Z,21.80
2022-10-04T16:11:24.115Z,21.80
2022-10-04T16:14:15.791Z,21.80
2022-10-04T16:17:22.417Z,21.80
2022-10-04T16:20:49.604Z,21.80
2022-10-04T16:23:43.302Z,21.70
2022-10-04T16:26:35.495Z,21.60
2022-10-04T16:29:34.421Z,21.60
2022-10-04T16:32:46.210Z,21.60
2022-10-04T16:35:34.964Z,21.50
2022-10-04T16:38:25.013Z,21.60
2022-10-04T16:41:29.246Z,21.50
2022-10-04T16:44:52.436Z,21.40
2022-10-04T16:47:56.461Z,21.40
2022-10-04T16:51:13.432Z,21.60
2022-10-04T16:54:12.556Z,21.70
2022-10-04T16:56:58.573Z,21.70
2022-10-04T16:59:47.557Z,21.80
2022-10-04T17:03:12.589Z,21.60
2022-10-04T17:06:15.621Z,21.50
2022-10-04T17:09:22.543Z,21.50
2022-10-04T17:12:27.897Z,21.30
2022-10-04T17:15:28.699Z,21.30
2022-10-04T17:18:38.519Z,21.00
2022-10-04T17:21:46.249Z,21.10
2022-10-04T17:24:38.302Z,21.40
2022-10-04T17:27:27.249Z,21.60
2022-10-04T17:30:15.777Z,21.70
2022-10-04T17:33:43.549Z,21.80
2022-10-04T17:36:39.117Z,21.50
2022-10-04T17:39:41.417Z,21.60
2022-10-04T17:42:54.485Z,21.60
2022-10-04T17:46:06.482Z,21.60
2022-10-04T17:49:17.207Z,21.60
2022-10-04T17:52:23.422Z,21.20
2022-10-04T17:55:49.924Z,21.40
2022-10-04T17:58:49.777Z,21.50
2022-10-04T18:01:48.950Z,21.40
2022-10-04T18:04:40.399Z,21.40
2022-10-04T18:07:34.085Z,21.50
2022-10-04T18:10:39.280Z,21.30
2022-10-04T18:13:35.051Z,21.20
2022-10-04T18:16:56.030Z,21.20
2022-10-04T18:20:10.854Z,21.00
2022-10-04T18:23:18.327Z,20.90
2022-10-04T18:26:17.705Z,20.90
2022-10-04T18:29:08.904Z,20.90
2022-10-04T18:31:59.931Z,21.00
2022-10-04T18:34:56.989Z,21.20
2022-10-04T18:37:42.678Z,21.30
2022-10-04T18:40:34.590Z,21.50
2022-10-04T18:43:35.843Z,22.00
2022-10-04T18:46:23.215Z,22.10
2022-10-04T18:49:15.832Z,21.70
2022-10-04T18:52:10.657Z,21.30
2022-10-04T18:55:05.140Z,21.10
2022-10-04T18:58:51.458Z,21.30
2022-10-04T19:02:00.811Z,21.30
2022-10-04T19:04:52.678Z,21.40
2022-10-04T19:07:54.055Z,21.20
2022-10-04T19:10:52.327Z,21.30
2022-10-04T19:14:22.199Z,21.60
2022-10-04T19:17:29.071Z,21.80
2022-10-04T19:20:30.466Z,21.50
2022-10-04T19:24:05.413Z,21.30
2022-10-04T19:27:02.565Z,21.40
2022-10-04T19:30:06.875Z,21.40
2022-10-04T19:33:30.464Z,21.40
2022-10-04T19:36:31.321Z,21.00
2022-10-04T19:39:36.034Z,20.60
2022-10-04T19:42:37.827Z,20.50
2022-10-04T19:45:36.657Z,20.50
2022-10-04T19:48:25.705Z,20.20
2022-10-04T19:51:33.778Z,20.50
2022-10-04T19:54:29.828Z,20.60
2022-10-04T19:57:15.292Z,20.50
2022-10-04T20:00:01.529Z,20.50
2022-10-04T20:02:57.198Z,19.20
2022-10-04T20:05:45.212Z,20.50
2022-10-04T20:08:52.369Z,20.60
2022-10-04T20:11:38.756Z,20.60
2022-10-04T20:14:27.871Z,20.60
2022-10-04T20:17:30.828Z,20.40
2022-10-04T20:20:42.815Z,20.30
2022-10-04T20:23:37.907Z,20.20
2022-10-04T20:26:54.253Z,20.20
2022-10-04T20:29:40.612Z,19.80
2022-10-04T20:32:36.962Z,20.10
2022-10-04T20:36:02.813Z,20.10
2022-10-04T20:38:59.826Z,20.00
2022-10-04T20:42:04.268Z,20.10
2022-10-04T20:44:55.687Z,20.10
2022-10-04T20:47:58.119Z,19.80
2022-10-04T20:50:52.465Z,19.90
2022-10-04T20:53:46.746Z,20.00
2022-10-04T20:56:33.525Z,19.90
2022-10-04T20:59:19.264Z,20.00
2022-10-04T21:02:12.393Z,20.30
2022-10-04T21:05:26.721Z,20.40
2022-10-04T21:08:22.762Z,20.50
2022-10-04T21:11:20.680Z,20.50
2022-10-04T21:14:35.064Z,20.50
2022-10-04T21:17:29.804Z,20.40
2022-10-04T21:20:36.605Z,20.30
2022-10-04T21:23:34.104Z,20.40
2022-10-04T21:26:23.816Z,20.50
2022-10-04T21:29:09.369Z,20.50
2022-10-04T21:31:59.151Z,20.40
2022-10-04T21:34:53.798Z,20.40
2022-10-04T21:37:40.331Z,20.30
2022-10-04T21:40:25.613Z,20.30
2022-10-04T21:43:11.364Z,20.20
2022-10-04T21:45:57.523Z,20.20
2022-10-04T21:48:43.165Z,20.20
2022-10-04T21:51:31.841Z,20.00
2022-10-04T21:54:17.670Z,20.00
2022-10-04T21:57:03.580Z,19.80
2022-10-04T21:59:49.073Z,19.80
2022-10-04T22:02:34.905Z,19.90
2022-10-04T22:05:20.534Z,19.90
2022-10-04T22:08:06.328Z,20.00
2022-10-04T22:10:57.606Z,20.10
2022-10-04T22:13:44.621Z,19.80
2022-10-04T22:16:30.483Z,19.70
2022-10-04T22:19:16.583Z,19.40
2022-10-04T22:22:05.939Z,19.30
2022-10-04T22:24:51.431Z,19.40
2022-10-04T22:27:37.111Z,19.80
2022-10-04T22:30:26.411Z,20.00
2022-10-04T22:33:39.813Z,19.80
2022-10-04T22:36:53.103Z,19.50
2022-10-04T22:39:39.064Z,19.50
2022-10-04T22:42:31.092Z,19.80
2022-10-04T22:45:21.930Z,19.90
2022-10-04T22:48:11.860Z,19.70
2022-10-04T22:50:57.193Z,19.60
2022-10-04T22:53:45.131Z,19.60
2022-10-04T22:56:30.857Z,19.60
2022-10-04T22:59:19.553Z,19.40
2022-10-04T23:02:15.823Z,19.70
2022-10-04T23:05:17.605Z,19.90
2022-10-04T23:08:03.220Z,20.00
2022-10-04T23:10:53.110Z,20.20
2022-10-04T23:13:39.242Z,20.30
2022-10-04T23:16:26.217Z,20.20
2022-10-04T23:19:20.243Z,20.30
2022-10-04T23:22:14.465Z,20.20
2022-10-04T23:25:01.052Z,20.20
2022-10-04T23:27:47.856Z,20.20
2022-10-04T23:30:33.831Z,20.20
2022-10-04T23:33:22.151Z,20.30
2022-10-04T23:36:13.271Z,20.20
2022-10-04T23:39:01.014Z,20.20
2022-10-04T23:41:46.825Z,20.30
2022-10-04T23:44:35.564Z,20.30
2022-10-04T23:47:23.098Z,20.20
2022-10-04T23:50:21.113Z,19.80
2022-10-04T23:53:15.683Z,19.30
2022-10-04T23:56:05.333Z,19.20
2022-10-04T23:58:52.894Z,19.40
